createdAt,value
2023-07-16T00:00:40.199Z,100379.13
2023-07-16T00:03:08.860Z,100395.84
2023-07-16T00:05:39.748Z,100397.53
2023-07-16T00:08:08.347Z,100385.94
2023-07-16T00:10:39.574Z,100380.81
2023-07-16T00:13:08.291Z,100402.31
2023-07-16T00:15:36.875Z,100388.47
2023-07-16T00:18:06.941Z,100385.16
2023-07-16T00:20:35.585Z,100408.47
2023-07-16T00:23:03.965Z,100416.53
2023-07-16T00:25:32.657Z,100440.41
2023-07-16T00:28:02.608Z,100448.38
2023-07-16T00:30:31.002Z,100445.72
2023-07-16T00:32:59.721Z,100449.31
2023-07-16T00:35:28.436Z,100451.19
2023-07-16T00:37:57.232Z,100428.41
2023-07-16T00:40:25.936Z,100402.00
2023-07-16T00:42:54.677Z,100399.75
2023-07-16T00:45:24.777Z,100394.72
2023-07-16T00:47:54.425Z,100427.69
2023-07-16T00:50:23.642Z,100388.75
2023-07-16T00:52:52.689Z,100381.94
2023-07-16T00:55:21.522Z,100419.38
2023-07-16T00:57:50.218Z,100400.84
2023-07-16T01:00:18.772Z,100399.25
2023-07-16T01:02:48.851Z,100405.53
2023-07-16T01:05:17.725Z,100431.16
2023-07-16T01:07:57.167Z,100454.38
2023-07-16T01:10:26.824Z,100459.56
2023-07-16T01:12:58.432Z,100458.72
2023-07-16T01:15:27.200Z,100454.16
2023-07-16T01:17:57.182Z,100460.41
2023-07-16T01:20:26.852Z,100459.56
2023-07-16T01:23:20.083Z,100457.03
2023-07-16T01:26:21.950Z,100457.03
2023-07-16T01:29:30.531Z,100465.00
2023-07-16T01:32:03.797Z,100471.25
2023-07-16T01:34:35.296Z,100472.97
2023-07-16T01:37:05.010Z,100499.56
2023-07-16T01:39:34.773Z,100481.88
2023-07-16T01:42:03.838Z,100480.19
2023-07-16T01:44:32.527Z,100478.50
2023-07-16T01:47:10.065Z,100484.00
2023-07-16T01:49:40.266Z,100479.94
2023-07-16T01:52:10.047Z,100472.22
2023-07-16T01:54:39.057Z,100477.84
2023-07-16T01:57:07.938Z,100486.09
2023-07-16T01:59:36.520Z,100476.63
2023-07-16T02:02:07.781Z,100478.50
2023-07-16T02:04:44.283Z,100484.66
2023-07-16T02:07:13.508Z,100490.84
2023-07-16T02:09:42.188Z,100490.84
2023-07-16T02:12:10.768Z,100496.25
2023-07-16T02:14:39.569Z,100491.91
2023-07-16T02:17:09.679Z,100498.06
2023-07-16T02:19:38.222Z,100507.56
2023-07-16T02:22:07.194Z,100511.72
2023-07-16T02:24:36.643Z,100519.63
2023-07-16T02:27:05.694Z,100523.03
2023-07-16T02:29:35.767Z,100520.28
2023-07-16T02:32:04.476Z,100525.59
2023-07-16T02:34:34.383Z,100531.75
2023-07-16T02:37:04.286Z,100530.91
2023-07-16T02:39:32.820Z,100532.59
2023-07-16T02:42:01.411Z,100525.59
2023-07-16T02:44:30.030Z,100533.88
2023-07-16T02:46:58.668Z,100541.16
2023-07-16T02:49:27.300Z,100545.72
2023-07-16T02:51:57.289Z,100546.78
2023-07-16T02:54:25.964Z,100557.59
2023-07-16T02:56:54.620Z,100542.69
2023-07-16T02:59:23.661Z,100535.84
2023-07-16T03:01:53.419Z,100548.38
2023-07-16T03:04:23.049Z,100558.22
2023-07-16T03:06:51.695Z,100562.81
2023-07-16T03:09:21.714Z,100546.16
2023-07-16T03:11:50.320Z,100549.06
2023-07-16T03:14:20.496Z,100551.16
2023-07-16T03:16:49.216Z,100554.28
2023-07-16T03:19:17.844Z,100561.66
2023-07-16T03:21:47.114Z,100562.88
2023-07-16T03:24:15.391Z,100573.84
2023-07-16T03:26:45.311Z,100591.00
2023-07-16T03:29:14.324Z,100580.72
2023-07-16T03:31:42.889Z,100588.09
2023-07-16T03:34:13.036Z,100589.31
2023-07-16T03:36:41.761Z,100584.16
2023-07-16T03:39:10.860Z,100598.41
2023-07-16T03:41:39.447Z,100593.25
2023-07-16T03:44:09.361Z,100596.88
2023-07-16T03:46:39.174Z,100603.28
2023-07-16T03:49:10.244Z,100608.75
2023-07-16T03:51:39.000Z,100591.31
2023-07-16T03:54:07.549Z,100604.75
2023-07-16T03:56:36.266Z,100598.75
2023-07-16T03:59:05.441Z,100605.09
2023-07-16T04:01:35.468Z,100609.63
2023-07-16T04:04:04.100Z,100611.50
2023-07-16T04:06:32.694Z,100615.09
2023-07-16T04:09:01.258Z,100619.56
2023-07-16T04:11:29.851Z,100623.06
2023-07-16T04:13:58.384Z,100634.69
2023-07-16T04:16:27.045Z,100633.84
2023-07-16T04:18:57.061Z,100631.13
2023-07-16T04:21:25.666Z,100645.31
2023-07-16T04:23:54.226Z,100646.16
2023-07-16T04:26:22.851Z,100657.56
2023-07-16T04:28:51.403Z,100660.22
2023-07-16T04:31:19.691Z,100649.59
2023-07-16T04:33:48.282Z,100661.06
2023-07-16T04:36:18.618Z,100665.53
2023-07-16T04:38:47.268Z,100667.22
2023-07-16T04:41:15.858Z,100661.91
2023-07-16T04:43:44.410Z,100668.97
2023-07-16T04:46:13.249Z,100658.34
2023-07-16T04:48:42.049Z,100663.66
2023-07-16T04:51:10.558Z,100665.34
2023-07-16T04:53:40.481Z,100667.06
2023-07-16T04:56:15.012Z,100665.19
2023-07-16T04:58:44.573Z,100669.47
2023-07-16T05:01:13.412Z,100673.81
2023-07-16T05:03:42.190Z,100675.47
2023-07-16T05:06:11.154Z,100685.91
2023-07-16T05:08:41.127Z,100688.31
2023-07-16T05:11:09.716Z,100689.00
2023-07-16T05:13:38.278Z,100697.75
2023-07-16T05:16:07.258Z,100701.00
2023-07-16T05:18:35.898Z,100703.47
2023-07-16T05:21:04.514Z,100706.91
2023-07-16T05:23:33.063Z,100709.41
2023-07-16T05:26:03.033Z,100718.88
2023-07-16T05:28:31.309Z,100719.69
2023-07-16T05:31:05.732Z,100719.50
2023-07-16T05:33:34.440Z,100731.69
2023-07-16T05:36:03.016Z,100731.53
2023-07-16T05:38:31.330Z,100733.03
2023-07-16T05:41:04.679Z,100727.56
2023-07-16T05:43:33.966Z,100730.91
2023-07-16T05:46:02.531Z,100728.91
2023-07-16T05:48:31.121Z,100728.00
2023-07-16T05:50:59.809Z,100730.47
2023-07-16T05:53:28.344Z,100733.72
2023-07-16T05:55:56.907Z,100736.97
2023-07-16T05:58:26.824Z,100724.47
2023-07-16T06:00:55.387Z,100726.88
2023-07-16T06:03:23.930Z,100738.94
2023-07-16T06:05:52.537Z,100725.50
2023-07-16T06:08:21.351Z,100734.91
2023-07-16T06:10:50.038Z,100742.28
2023-07-16T06:13:18.592Z,100724.81
2023-07-16T06:15:48.835Z,100739.13
2023-07-16T06:18:18.476Z,100756.16
2023-07-16T06:20:48.549Z,100744.88
2023-07-16T06:23:17.890Z,100752.47
2023-07-16T06:25:47.984Z,100756.69
2023-07-16T06:28:17.258Z,100749.44
2023-07-16T06:30:47.137Z,100750.97
2023-07-16T06:33:15.727Z,100755.97
2023-07-16T06:35:47.719Z,100741.50
2023-07-16T06:38:16.752Z,100754.03
2023-07-16T06:40:49.962Z,100748.91
2023-07-16T06:43:19.062Z,100757.47
2023-07-16T06:45:50.838Z,100754.81
2023-07-16T06:48:19.714Z,100757.28
2023-07-16T06:50:48.444Z,100749.03
2023-07-16T06:53:17.105Z,100755.88
2023-07-16T06:55:45.745Z,100756.47
2023-07-16T06:58:15.921Z,100760.72
2023-07-16T07:00:44.597Z,100752.38
2023-07-16T07:03:14.526Z,100755.78
2023-07-16T07:05:44.031Z,100758.16
2023-07-16T07:08:12.610Z,100756.94
2023-07-16T07:10:41.937Z,100758.25
2023-07-16T07:13:10.471Z,100749.97
2023-07-16T07:15:39.088Z,100747.84
2023-07-16T07:18:07.885Z,100756.22
2023-07-16T07:20:37.977Z,100756.47
2023-07-16T07:23:06.827Z,100761.94
2023-07-16T07:25:35.450Z,100770.91
2023-07-16T07:28:05.115Z,100756.44
2023-07-16T07:30:33.710Z,100761.38
2023-07-16T07:33:02.468Z,100763.44
2023-07-16T07:35:30.763Z,100762.81
2023-07-16T07:38:01.180Z,100762.00
2023-07-16T07:40:30.266Z,100760.03
2023-07-16T07:42:59.436Z,100758.59
2023-07-16T07:45:28.667Z,100764.06
2023-07-16T07:47:57.480Z,100759.78
2023-07-16T07:50:26.936Z,100757.31
2023-07-16T07:52:55.294Z,100760.88
2023-07-16T07:55:24.934Z,100763.75
2023-07-16T07:57:54.095Z,100770.28
2023-07-16T08:00:23.496Z,100759.31
2023-07-16T08:02:52.623Z,100770.63
2023-07-16T08:05:21.399Z,100762.72
2023-07-16T08:07:50.040Z,100757.34
2023-07-16T08:10:18.880Z,100767.59
2023-07-16T08:12:48.985Z,100738.34
2023-07-16T08:15:17.664Z,100766.88
2023-07-16T08:17:47.499Z,100764.19
2023-07-16T08:20:16.157Z,100762.97
2023-07-16T08:22:44.754Z,100773.66
2023-07-16T08:25:13.309Z,100751.94
2023-07-16T08:27:41.838Z,100764.81
2023-07-16T08:30:12.530Z,100767.50
2023-07-16T08:32:41.079Z,100762.13
2023-07-16T08:35:13.250Z,100760.22
2023-07-16T08:37:41.888Z,100766.38
2023-07-16T08:40:12.105Z,100761.81
2023-07-16T08:42:41.412Z,100753.16
2023-07-16T08:45:14.320Z,100760.34
2023-07-16T08:47:42.961Z,100775.19
2023-07-16T08:50:12.773Z,100758.50
2023-07-16T08:52:42.081Z,100768.56
2023-07-16T08:55:11.028Z,100771.25
2023-07-16T08:57:41.329Z,100765.88
2023-07-16T09:00:11.432Z,100766.09
2023-07-16T09:02:41.452Z,100775.31
2023-07-16T09:05:20.771Z,100772.41
2023-07-16T09:07:56.967Z,100778.00
2023-07-16T09:10:25.618Z,100775.47
2023-07-16T09:12:54.472Z,100759.91
2023-07-16T09:15:23.045Z,100767.50
2023-07-16T09:17:56.130Z,100770.28
2023-07-16T09:20:25.558Z,100761.09
2023-07-16T09:22:57.262Z,100769.22
2023-07-16T09:25:28.980Z,100766.84
2023-07-16T09:27:57.652Z,100757.19
2023-07-16T09:30:26.252Z,100760.41
2023-07-16T09:32:56.296Z,100750.47
2023-07-16T09:35:24.938Z,100757.53
2023-07-16T09:37:53.507Z,100755.28
2023-07-16T09:40:22.225Z,100757.09
2023-07-16T09:42:51.603Z,100749.38
2023-07-16T09:45:21.303Z,100775.72
2023-07-16T09:47:50.263Z,100760.88
2023-07-16T09:50:20.723Z,100757.00
2023-07-16T09:52:50.193Z,100768.09
2023-07-16T09:55:20.369Z,100758.81
2023-07-16T09:57:49.575Z,100763.44
2023-07-16T10:00:21.670Z,100753.56
2023-07-16T10:02:50.537Z,100755.50
2023-07-16T10:05:25.653Z,100749.50
2023-07-16T10:07:55.784Z,100750.31
2023-07-16T10:10:27.449Z,100747.03
2023-07-16T10:13:00.643Z,100741.25
2023-07-16T10:15:30.345Z,100762.91
2023-07-16T10:17:59.302Z,100765.88
2023-07-16T10:20:33.726Z,100756.78
2023-07-16T10:23:14.333Z,100748.13
2023-07-16T10:25:59.495Z,100744.06
2023-07-16T10:28:28.200Z,100749.28
2023-07-16T10:30:56.999Z,100755.63
2023-07-16T10:33:25.731Z,100745.56
2023-07-16T10:35:55.448Z,100740.03
2023-07-16T10:38:24.082Z,100742.22
2023-07-16T10:40:52.914Z,100742.03
2023-07-16T10:43:21.993Z,100741.09
2023-07-16T10:45:52.573Z,100731.53
2023-07-16T10:48:27.755Z,100730.00
2023-07-16T10:50:57.663Z,100740.41
2023-07-16T10:53:26.259Z,100758.41
2023-07-16T10:55:56.118Z,100749.75
2023-07-16T10:58:25.085Z,100736.19
2023-07-16T11:00:53.703Z,100726.66
2023-07-16T11:03:22.398Z,100723.94
2023-07-16T11:05:50.896Z,100731.16
2023-07-16T11:08:27.255Z,100732.44
2023-07-16T11:10:58.698Z,100727.78
2023-07-16T11:13:29.048Z,100719.41
2023-07-16T11:15:57.703Z,100726.75
2023-07-16T11:18:26.427Z,100722.81
2023-07-16T11:20:55.359Z,100712.72
2023-07-16T11:23:25.003Z,100715.66
2023-07-16T11:25:54.919Z,100730.28
2023-07-16T11:28:23.137Z,100713.13
2023-07-16T11:30:51.579Z,100722.34
2023-07-16T11:33:20.478Z,100721.38
2023-07-16T11:35:50.762Z,100716.00
2023-07-16T11:38:21.210Z,100711.50
2023-07-16T11:40:49.913Z,100722.50
2023-07-16T11:43:22.289Z,100712.97
2023-07-16T11:45:50.927Z,100711.44
2023-07-16T11:48:19.501Z,100712.38
2023-07-16T11:50:47.998Z,100704.75
2023-07-16T11:53:18.919Z,100707.75
2023-07-16T11:55:47.242Z,100708.53
2023-07-16T11:58:15.771Z,100699.78
2023-07-16T12:00:45.441Z,100702.75
2023-07-16T12:03:14.165Z,100704.69
2023-07-16T12:05:52.336Z,100711.28
2023-07-16T12:08:22.126Z,100703.44
2023-07-16T12:10:50.733Z,100705.50
2023-07-16T12:13:19.392Z,100686.03
2023-07-16T12:15:48.984Z,100687.22
2023-07-16T12:18:17.344Z,100699.25
2023-07-16T12:20:45.941Z,100694.34
2023-07-16T12:23:14.532Z,100686.00
2023-07-16T12:25:44.433Z,100695.88
2023-07-16T12:28:13.432Z,100700.38
2023-07-16T12:30:42.072Z,100692.09
2023-07-16T12:33:12.089Z,100694.28
2023-07-16T12:35:40.646Z,100693.06
2023-07-16T12:38:09.487Z,100686.66
2023-07-16T12:40:41.690Z,100705.69
2023-07-16T12:43:10.367Z,100688.09
2023-07-16T12:45:38.893Z,100698.56
2023-07-16T12:48:08.013Z,100690.09
2023-07-16T12:50:37.746Z,100677.56
2023-07-16T12:53:06.322Z,100703.59
2023-07-16T12:55:35.093Z,100687.69
2023-07-16T12:58:03.903Z,100685.34
2023-07-16T13:00:32.604Z,100678.25
2023-07-16T13:03:01.181Z,100684.69
2023-07-16T13:05:30.000Z,100681.09
2023-07-16T13:07:59.572Z,100672.91
2023-07-16T13:10:28.273Z,100680.19
2023-07-16T13:12:56.518Z,100675.34
2023-07-16T13:15:25.137Z,100672.19
2023-07-16T13:17:53.464Z,100678.06
2023-07-16T13:20:22.918Z,100673.38
2023-07-16T13:22:51.392Z,100677.63
2023-07-16T13:25:21.437Z,100678.97
2023-07-16T13:27:50.176Z,100677.97
2023-07-16T13:30:18.847Z,100676.28
2023-07-16T13:32:47.507Z,100680.81
2023-07-16T13:35:15.836Z,100672.03
2023-07-16T13:37:44.481Z,100671.84
2023-07-16T13:40:14.253Z,100671.56
2023-07-16T13:42:43.872Z,100672.47
2023-07-16T13:45:12.515Z,100671.19
2023-07-16T13:47:41.165Z,100691.91
2023-07-16T13:50:10.801Z,100669.69
2023-07-16T13:52:39.770Z,100675.41
2023-07-16T13:55:08.819Z,100670.78
2023-07-16T13:57:37.396Z,100693.25
2023-07-16T14:00:10.868Z,100673.91
2023-07-16T14:02:39.450Z,100672.31
2023-07-16T14:05:08.661Z,100678.06
2023-07-16T14:07:37.262Z,100682.50
2023-07-16T14:10:06.590Z,100673.31
2023-07-16T14:12:35.580Z,100672.09
2023-07-16T14:15:04.744Z,100663.91
2023-07-16T14:17:34.752Z,100656.44
2023-07-16T14:20:04.705Z,100663.03
2023-07-16T14:22:33.237Z,100667.09
2023-07-16T14:25:01.806Z,100672.56
2023-07-16T14:27:30.362Z,100666.44
2023-07-16T14:30:06.215Z,100680.06
2023-07-16T14:32:37.534Z,100663.94
2023-07-16T14:35:10.919Z,100651.63
2023-07-16T14:37:44.629Z,100654.94
2023-07-16T14:40:13.942Z,100659.84
2023-07-16T14:42:43.902Z,100653.44
2023-07-16T14:45:12.780Z,100654.88
2023-07-16T14:47:42.832Z,100652.28
2023-07-16T14:50:12.021Z,100655.28
2023-07-16T14:52:41.222Z,100650.06
2023-07-16T14:55:10.432Z,100655.03
2023-07-16T14:57:39.003Z,100649.59
2023-07-16T15:00:10.008Z,100660.06
2023-07-16T15:02:38.415Z,100648.59
2023-07-16T15:05:09.986Z,100655.16
2023-07-16T15:07:39.079Z,100656.75
2023-07-16T15:10:09.100Z,100649.50
2023-07-16T15:12:37.853Z,100659.28
2023-07-16T15:15:07.068Z,100646.00
2023-07-16T15:17:35.820Z,100652.16
2023-07-16T15:20:05.560Z,100637.28
2023-07-16T15:22:35.358Z,100635.44
2023-07-16T15:25:05.342Z,100638.09
2023-07-16T15:27:33.974Z,100630.09
2023-07-16T15:30:03.443Z,100638.50
2023-07-16T15:32:32.039Z,100642.03
2023-07-16T15:35:00.306Z,100633.56
2023-07-16T15:37:28.954Z,100622.81
2023-07-16T15:39:59.989Z,100628.34
2023-07-16T15:42:28.887Z,100627.69
2023-07-16T15:44:58.603Z,100629.50
2023-07-16T15:47:27.510Z,100632.69
2023-07-16T15:49:56.134Z,100625.84
2023-07-16T15:52:26.427Z,100625.13
2023-07-16T15:55:04.930Z,100634.00
2023-07-16T15:57:33.531Z,100620.00
2023-07-16T16:00:02.070Z,100619.72
2023-07-16T16:02:40.643Z,100612.44
2023-07-16T16:05:09.988Z,100622.72
2023-07-16T16:07:38.682Z,100617.47
2023-07-16T16:10:10.606Z,100618.94
2023-07-16T16:12:39.303Z,100606.69
2023-07-16T16:15:08.831Z,100603.66
2023-07-16T16:17:37.622Z,100604.22
2023-07-16T16:20:08.841Z,100605.13
2023-07-16T16:22:37.486Z,100606.09
2023-07-16T16:25:07.669Z,100610.16
2023-07-16T16:27:38.210Z,100599.78
2023-07-16T16:30:08.323Z,100610.28
2023-07-16T16:32:36.900Z,100604.75
2023-07-16T16:35:06.521Z,100607.19
2023-07-16T16:37:35.060Z,100600.09
2023-07-16T16:40:07.111Z,100599.22
2023-07-16T16:42:37.080Z,100602.63
2023-07-16T16:45:06.280Z,100606.72
2023-07-16T16:47:35.122Z,100615.84
2023-07-16T16:50:04.042Z,100607.28
2023-07-16T16:52:33.638Z,100596.22
2023-07-16T16:55:02.702Z,100603.81
2023-07-16T16:57:32.203Z,100602.34
2023-07-16T17:00:02.357Z,100611.03
2023-07-16T17:02:30.931Z,100614.84
2023-07-16T17:04:59.561Z,100613.03
2023-07-16T17:07:28.457Z,100617.53
2023-07-16T17:09:57.018Z,100617.06
2023-07-16T17:12:25.625Z,100614.63
2023-07-16T17:14:54.955Z,100612.16
2023-07-16T17:17:25.235Z,100619.69
2023-07-16T17:19:57.566Z,100614.47
2023-07-16T17:22:27.798Z,100614.97
2023-07-16T17:24:56.540Z,100618.25
2023-07-16T17:27:25.125Z,100622.47
2023-07-16T17:29:53.945Z,100623.38
2023-07-16T17:32:24.094Z,100619.31
2023-07-16T17:34:52.765Z,100629.09
2023-07-16T17:37:21.359Z,100617.78
2023-07-16T17:39:51.028Z,100626.66
2023-07-16T17:42:21.314Z,100623.81
2023-07-16T17:44:51.730Z,100622.09
2023-07-16T17:47:20.279Z,100627.72
2023-07-16T17:49:50.209Z,100629.88
2023-07-16T17:52:18.753Z,100629.41
2023-07-16T17:54:47.324Z,100633.41
2023-07-16T17:57:15.922Z,100630.94
2023-07-16T17:59:44.472Z,100631.22
2023-07-16T18:02:13.721Z,100640.59
2023-07-16T18:04:43.322Z,100638.63
2023-07-16T18:07:13.528Z,100641.47
2023-07-16T18:09:42.141Z,100635.53
2023-07-16T18:12:10.952Z,100634.22
2023-07-16T18:14:39.294Z,100634.91
2023-07-16T18:17:07.935Z,100638.13
2023-07-16T18:19:36.804Z,100634.72
2023-07-16T18:22:24.363Z,100632.00
2023-07-16T18:24:55.905Z,100639.28
2023-07-16T18:27:24.467Z,100633.03
2023-07-16T18:29:53.525Z,100638.38
2023-07-16T18:32:22.425Z,100643.94
2023-07-16T18:34:53.720Z,100643.06
2023-07-16T18:37:23.460Z,100646.38
2023-07-16T18:39:54.303Z,100649.75
2023-07-16T18:42:27.460Z,100644.06
2023-07-16T18:45:00.023Z,100656.16
2023-07-16T18:47:29.823Z,100653.00
2023-07-16T18:50:00.846Z,100649.16
2023-07-16T18:52:29.604Z,100656.00
2023-07-16T18:54:58.230Z,100651.16
2023-07-16T18:57:29.349Z,100655.19
2023-07-16T18:59:58.079Z,100652.34
2023-07-16T19:02:26.666Z,100655.78
2023-07-16T19:04:55.511Z,100654.72
2023-07-16T19:07:26.241Z,100660.72
2023-07-16T19:09:54.857Z,100655.22
2023-07-16T19:12:25.005Z,100659.38
2023-07-16T19:14:58.258Z,100670.84
2023-07-16T19:17:27.565Z,100661.63
2023-07-16T19:19:56.717Z,100664.78
2023-07-16T19:22:27.500Z,100665.53
2023-07-16T19:24:56.384Z,100666.03
2023-07-16T19:27:24.985Z,100671.16
2023-07-16T19:29:55.164Z,100668.09
2023-07-16T19:32:23.829Z,100676.69
2023-07-16T19:34:52.858Z,100674.50
2023-07-16T19:37:21.710Z,100684.00
2023-07-16T19:39:50.280Z,100682.66
2023-07-16T19:42:19.318Z,100687.66
2023-07-16T19:44:47.929Z,100686.41
2023-07-16T19:47:17.929Z,100688.84
2023-07-16T19:49:47.121Z,100704.50
2023-07-16T19:52:15.900Z,100697.31
2023-07-16T19:54:44.614Z,100710.41
2023-07-16T19:57:13.372Z,100707.66
2023-07-16T19:59:42.075Z,100710.16
2023-07-16T20:02:11.135Z,100711.72
2023-07-16T20:04:41.041Z,100713.16
2023-07-16T20:07:11.759Z,100718.94
2023-07-16T20:09:43.724Z,100724.75
2023-07-16T20:12:12.845Z,100721.53
2023-07-16T20:14:41.412Z,100718.34
2023-07-16T20:17:10.227Z,100722.22
2023-07-16T20:19:40.468Z,100720.72
2023-07-16T20:22:09.077Z,100716.56
2023-07-16T20:24:37.608Z,100715.94
2023-07-16T20:27:06.612Z,100716.25
2023-07-16T20:29:35.292Z,100721.78
2023-07-16T20:32:05.377Z,100724.69
2023-07-16T20:34:34.102Z,100731.22
2023-07-16T20:37:04.781Z,100729.63
2023-07-16T20:39:33.325Z,100733.59
2023-07-16T20:42:01.924Z,100737.66
2023-07-16T20:44:30.480Z,100735.53
2023-07-16T20:46:59.144Z,100730.53
2023-07-16T20:49:28.697Z,100727.44
2023-07-16T20:51:57.246Z,100725.16
2023-07-16T20:54:28.148Z,100726.47
2023-07-16T20:56:59.152Z,100727.09
2023-07-16T20:59:27.770Z,100719.72
2023-07-16T21:01:56.341Z,100725.66
2023-07-16T21:04:45.829Z,100728.31
2023-07-16T21:07:14.441Z,100726.06
2023-07-16T21:09:44.343Z,100737.03
2023-07-16T21:12:12.994Z,100729.22
2023-07-16T21:14:41.554Z,100732.09
2023-07-16T21:17:10.244Z,100738.63
2023-07-16T21:19:38.865Z,100732.72
2023-07-16T21:22:08.356Z,100737.41
2023-07-16T21:24:37.952Z,100734.09
2023-07-16T21:27:09.405Z,100728.00
2023-07-16T21:29:38.050Z,100736.22
2023-07-16T21:32:07.494Z,100738.16
2023-07-16T21:34:36.103Z,100735.69
2023-07-16T21:37:05.124Z,100741.22
2023-07-16T21:39:33.735Z,100744.06
2023-07-16T21:42:02.326Z,100738.94
2023-07-16T21:44:32.317Z,100745.34
2023-07-16T21:47:01.142Z,100742.97
2023-07-16T21:49:30.048Z,100745.81
2023-07-16T21:52:00.628Z,100748.69
2023-07-16T21:54:29.244Z,100744.53
2023-07-16T21:56:57.846Z,100752.69
2023-07-16T21:59:26.580Z,100753.94
2023-07-16T22:01:56.658Z,100747.94
2023-07-16T22:04:25.550Z,100756.22
2023-07-16T22:06:54.128Z,100755.56
2023-07-16T22:09:22.832Z,100759.34
2023-07-16T22:11:51.612Z,100762.97
2023-07-16T22:14:20.453Z,100765.75
2023-07-16T22:16:49.116Z,100757.84
2023-07-16T22:19:31.651Z,100761.66
2023-07-16T22:22:02.131Z,100763.09
2023-07-16T22:24:31.210Z,100763.22
2023-07-16T22:26:59.783Z,100755.94
2023-07-16T22:29:28.487Z,100768.13
2023-07-16T22:31:57.133Z,100772.13
2023-07-16T22:34:28.239Z,100769.03
2023-07-16T22:36:56.806Z,100770.31
2023-07-16T22:39:25.906Z,100768.03
2023-07-16T22:41:54.556Z,100772.78
2023-07-16T22:44:23.730Z,100766.88
2023-07-16T22:46:52.495Z,100763.72
2023-07-16T22:49:21.116Z,100771.03
2023-07-16T22:51:51.077Z,100764.00
2023-07-16T22:54:19.645Z,100764.00
2023-07-16T22:56:48.260Z,100770.94
2023-07-16T22:59:16.837Z,100769.06
2023-07-16T23:01:45.376Z,100768.94
2023-07-16T23:04:14.049Z,100770.75
2023-07-16T23:06:42.634Z,100768.03
2023-07-16T23:09:14.471Z,100770.69
2023-07-16T23:11:43.081Z,100762.59
2023-07-16T23:14:11.615Z,100773.91
2023-07-16T23:16:40.220Z,100774.59
2023-07-16T23:19:08.784Z,100771.84
2023-07-16T23:21:37.376Z,100783.16
2023-07-16T23:24:06.636Z,100778.69
2023-07-16T23:26:36.600Z,100780.41
2023-07-16T23:29:05.179Z,100775.09
2023-07-16T23:31:33.983Z,100781.34
2023-07-16T23:34:02.649Z,100781.44
2023-07-16T23:36:31.190Z,100784.19
2023-07-16T23:38:59.748Z,100781.69
2023-07-16T23:41:28.280Z,100772.38
2023-07-16T23:43:58.134Z,100770.84
2023-07-16T23:46:26.725Z,100778.13
2023-07-16T23:48:55.281Z,100771.22
2023-07-16T23:51:23.914Z,100769.84
2023-07-16T23:53:52.491Z,100772.09
2023-07-16T23:56:21.026Z,100781.56
2023-07-16T23:58:51.068Z,100785.53
